createdAt,value
2022-10-20T00:02:20.813Z,4.00
2022-10-20T00:05:26.397Z,3.97
2022-10-20T00:08:32.079Z,3.91
2022-10-20T00:11:40.427Z,3.83
2022-10-20T00:14:46.001Z,3.73
2022-10-20T00:17:54.710Z,3.73
2022-10-20T00:21:00.479Z,3.73
2022-10-20T00:24:07.344Z,3.74
2022-10-20T00:27:15.483Z,3.65
2022-10-20T00:30:22.548Z,3.65
2022-10-20T00:33:30.886Z,3.66
2022-10-20T00:36:36.437Z,3.64
2022-10-20T00:39:42.276Z,3.60
2022-10-20T00:42:56.732Z,3.54
2022-10-20T00:46:02.373Z,3.49
2022-10-20T00:49:19.088Z,3.42
2022-10-20T00:52:26.318Z,3.40
2022-10-20T00:55:37.139Z,3.42
2022-10-20T00:58:46.863Z,3.45
2022-10-20T01:01:53.446Z,3.39
2022-10-20T01:04:59.120Z,3.35
2022-10-20T01:08:04.679Z,3.35
2022-10-20T01:11:28.887Z,3.34
2022-10-20T01:14:55.600Z,3.31
2022-10-20T01:18:15.370Z,3.28
2022-10-20T01:21:52.123Z,3.27
2022-10-20T01:25:20.873Z,3.24
2022-10-20T01:28:41.929Z,3.18
2022-10-20T01:31:59.970Z,3.13
2022-10-20T01:35:18.237Z,3.12
2022-10-20T01:38:38.117Z,3.08
2022-10-20T01:41:54.213Z,3.04
2022-10-20T01:45:08.622Z,3.01
2022-10-20T01:48:19.670Z,2.92
2022-10-20T01:51:25.253Z,2.94
2022-10-20T01:54:33.496Z,2.93
2022-10-20T01:58:06.205Z,2.85
2022-10-20T02:01:28.639Z,2.76
2022-10-20T02:05:01.112Z,2.71
2022-10-20T02:08:19.598Z,2.69
2022-10-20T02:11:36.001Z,2.69
2022-10-20T02:14:44.052Z,2.71
2022-10-20T02:18:03.429Z,2.68
2022-10-20T02:21:11.318Z,2.68
2022-10-20T02:24:21.589Z,2.69
2022-10-20T02:27:37.047Z,2.62
2022-10-20T02:30:48.683Z,2.49
2022-10-20T02:34:00.484Z,2.50
2022-10-20T02:37:06.225Z,2.48
2022-10-20T02:40:13.773Z,2.47
2022-10-20T02:43:21.904Z,2.44
2022-10-20T02:46:27.685Z,2.43
2022-10-20T02:49:35.876Z,2.37
2022-10-20T02:52:50.103Z,2.38
2022-10-20T02:55:55.700Z,2.34
2022-10-20T02:59:01.398Z,2.30
2022-10-20T03:02:07.510Z,2.28
2022-10-20T03:05:15.798Z,2.23
2022-10-20T03:08:21.450Z,2.18
2022-10-20T03:11:27.616Z,2.10
2022-10-20T03:14:33.288Z,2.07
2022-10-20T03:17:39.141Z,2.04
2022-10-20T03:20:48.821Z,2.03
2022-10-20T03:23:54.558Z,2.01
2022-10-20T03:27:00.070Z,2.04
2022-10-20T03:30:05.830Z,2.06
2022-10-20T03:33:12.299Z,2.00
2022-10-20T03:36:20.572Z,2.00
2022-10-20T03:39:26.275Z,2.00
2022-10-20T03:42:34.103Z,1.95
2022-10-20T03:45:39.914Z,1.88
2022-10-20T03:48:45.725Z,1.93
2022-10-20T03:51:54.745Z,1.93
2022-10-20T03:55:00.237Z,1.91
2022-10-20T03:58:05.796Z,1.84
2022-10-20T04:01:18.943Z,1.80
2022-10-20T04:04:24.605Z,1.76
2022-10-20T04:07:32.797Z,1.70
2022-10-20T04:10:38.402Z,1.71
2022-10-20T04:13:43.985Z,1.69
2022-10-20T04:16:57.435Z,1.68
2022-10-20T04:20:15.394Z,1.66
2022-10-20T04:23:24.719Z,1.72
2022-10-20T04:26:30.348Z,1.75
2022-10-20T04:29:36.109Z,1.75
2022-10-20T04:32:41.912Z,1.75
2022-10-20T04:35:47.520Z,1.71
2022-10-20T04:38:55.788Z,1.70
2022-10-20T04:42:01.326Z,1.77
2022-10-20T04:45:07.604Z,1.76
2022-10-20T04:48:19.216Z,1.76
2022-10-20T04:51:24.835Z,1.71
2022-10-20T04:54:33.671Z,1.67
2022-10-20T04:57:39.598Z,1.67
2022-10-20T05:00:45.228Z,1.69
2022-10-20T05:03:51.188Z,1.68
2022-10-20T05:06:56.806Z,1.71
2022-10-20T05:10:18.007Z,1.66
2022-10-20T05:13:24.526Z,1.67
2022-10-20T05:16:30.922Z,1.66
2022-10-20T05:19:36.503Z,1.58
2022-10-20T05:22:42.036Z,1.61
2022-10-20T05:25:52.914Z,1.54
2022-10-20T05:28:58.931Z,1.51
2022-10-20T05:32:04.465Z,1.45
2022-10-20T05:35:11.484Z,1.54
2022-10-20T05:38:17.066Z,1.63
2022-10-20T05:41:28.580Z,1.68
2022-10-20T05:44:34.201Z,1.80
2022-10-20T05:47:39.858Z,1.88
2022-10-20T05:50:47.788Z,2.02
2022-10-20T05:53:54.149Z,2.15
2022-10-20T05:57:02.373Z,2.21
2022-10-20T06:00:12.825Z,2.28
2022-10-20T06:03:20.274Z,2.27
2022-10-20T06:06:31.558Z,2.40
2022-10-20T06:09:37.078Z,2.43
2022-10-20T06:12:45.297Z,2.55
2022-10-20T06:15:50.844Z,2.61
2022-10-20T06:18:57.089Z,2.75
2022-10-20T06:22:05.885Z,2.85
2022-10-20T06:25:12.815Z,3.12
2022-10-20T06:28:21.335Z,3.27
2022-10-20T06:31:31.207Z,3.64
2022-10-20T06:34:42.993Z,4.00
2022-10-20T06:37:53.961Z,4.62
2022-10-20T06:40:59.577Z,5.10
2022-10-20T06:44:28.085Z,5.74
2022-10-20T06:47:33.775Z,6.10
2022-10-20T06:50:39.392Z,6.49
2022-10-20T06:53:46.936Z,6.31
2022-10-20T06:56:52.617Z,5.69
2022-10-20T07:00:02.926Z,6.21
2022-10-20T07:03:08.477Z,6.48
2022-10-20T07:06:19.117Z,7.11
2022-10-20T07:09:24.750Z,7.45
2022-10-20T07:12:30.457Z,7.61
2022-10-20T07:15:38.658Z,7.49
2022-10-20T07:22:10.475Z,9.06
2022-10-20T07:25:16.139Z,9.18
2022-10-20T07:28:22.034Z,9.11
2022-10-20T07:31:35.749Z,9.46
2022-10-20T07:34:41.341Z,9.26
2022-10-20T07:37:46.883Z,8.88
2022-10-20T07:40:52.787Z,8.72
2022-10-20T07:44:00.311Z,8.48
2022-10-20T07:47:08.484Z,8.82
2022-10-20T07:50:14.782Z,9.63
2022-10-20T07:53:20.549Z,9.69
2022-10-20T07:56:26.672Z,9.12
2022-10-20T07:59:32.378Z,9.80
2022-10-20T08:02:41.044Z,8.59
2022-10-20T08:05:46.687Z,8.51
2022-10-20T08:08:52.407Z,8.69
2022-10-20T08:11:58.086Z,9.53
2022-10-20T08:15:03.697Z,9.61
2022-10-20T08:18:11.988Z,9.40
2022-10-20T08:21:22.898Z,10.12
2022-10-20T08:24:28.590Z,9.94
2022-10-20T08:27:34.338Z,9.39
2022-10-20T08:30:41.351Z,9.53
2022-10-20T08:33:52.570Z,9.49
2022-10-20T08:36:58.884Z,9.47
2022-10-20T08:40:04.545Z,10.07
2022-10-20T08:43:19.067Z,11.03
2022-10-20T08:46:33.559Z,11.45
2022-10-20T08:49:41.842Z,10.38
2022-10-20T08:52:50.303Z,10.91
2022-10-20T08:55:59.259Z,11.98
2022-10-20T08:59:06.254Z,12.24
2022-10-20T09:02:19.998Z,12.15
2022-10-20T09:05:40.599Z,11.59
2022-10-20T09:08:47.686Z,11.14
2022-10-20T09:11:55.397Z,12.32
2022-10-20T09:15:01.017Z,12.52
2022-10-20T09:18:14.009Z,12.41
2022-10-20T09:21:25.841Z,12.73
2022-10-20T09:24:34.721Z,12.51
2022-10-20T09:27:43.148Z,10.86
2022-10-20T09:30:48.759Z,10.44
2022-10-20T09:33:54.542Z,11.81
2022-10-20T09:37:16.230Z,11.98
2022-10-20T09:40:22.938Z,12.08
2022-10-20T09:43:31.151Z,12.65
2022-10-20T09:46:48.873Z,12.27
2022-10-20T09:50:03.850Z,12.00
2022-10-20T09:53:38.230Z,12.73
2022-10-20T09:56:48.142Z,12.91
2022-10-20T10:00:01.425Z,12.42
2022-10-20T10:03:24.967Z,12.56
2022-10-20T10:06:42.344Z,12.50
2022-10-20T10:10:08.269Z,14.06
2022-10-20T10:13:28.356Z,15.07
2022-10-20T10:16:45.757Z,13.84
2022-10-20T10:19:55.448Z,12.74
2022-10-20T10:23:23.559Z,12.83
2022-10-20T10:27:05.245Z,14.12
2022-10-20T10:30:32.255Z,14.23
2022-10-20T10:33:38.491Z,14.97
2022-10-20T10:36:44.833Z,14.60
2022-10-20T10:39:51.302Z,14.35
2022-10-20T10:43:30.032Z,14.56
2022-10-20T10:46:45.489Z,15.28
2022-10-20T10:50:14.930Z,14.30
2022-10-20T10:53:42.905Z,14.95
2022-10-20T10:56:54.507Z,15.09
2022-10-20T11:00:12.893Z,14.85
2022-10-20T11:03:51.214Z,14.06
2022-10-20T11:07:11.422Z,14.26
2022-10-20T11:10:38.092Z,13.85
2022-10-20T11:14:06.442Z,13.97
2022-10-20T11:17:45.775Z,12.87
2022-10-20T11:21:16.158Z,11.80
2022-10-20T11:24:51.130Z,12.29
2022-10-20T11:28:01.112Z,13.67
2022-10-20T11:31:08.892Z,13.70
2022-10-20T11:34:29.705Z,14.38
2022-10-20T11:37:47.974Z,13.54
2022-10-20T11:41:03.808Z,13.95
2022-10-20T11:44:18.477Z,12.29
2022-10-20T11:47:36.647Z,12.60
2022-10-20T11:50:56.507Z,12.54
2022-10-20T11:54:30.648Z,11.93
2022-10-20T11:58:08.210Z,13.01
2022-10-20T12:01:34.974Z,12.42
2022-10-20T12:05:18.584Z,12.91
2022-10-20T12:09:11.237Z,12.13
2022-10-20T12:12:28.086Z,12.06
2022-10-20T12:15:34.397Z,12.66
2022-10-20T12:18:40.665Z,13.07
2022-10-20T12:22:06.772Z,13.50
2022-10-20T12:25:40.389Z,13.35
2022-10-20T12:28:45.951Z,14.01
2022-10-20T12:32:48.433Z,13.25
2022-10-20T12:36:25.700Z,13.43
2022-10-20T12:39:33.370Z,13.77
2022-10-20T12:42:51.034Z,13.99
2022-10-20T12:46:14.762Z,13.79
2022-10-20T12:49:32.726Z,13.77
2022-10-20T12:52:43.245Z,14.10
2022-10-20T12:56:00.669Z,14.26
2022-10-20T12:59:44.852Z,14.35
2022-10-20T13:02:54.011Z,14.43
2022-10-20T13:05:59.934Z,14.44
2022-10-20T13:09:27.558Z,13.66
2022-10-20T13:12:43.479Z,13.16
2022-10-20T13:15:57.489Z,12.58
2022-10-20T13:19:09.336Z,12.15
2022-10-20T13:22:44.637Z,11.41
2022-10-20T13:25:54.322Z,11.07
2022-10-20T13:29:08.516Z,10.88
2022-10-20T13:32:35.141Z,10.60
2022-10-20T13:35:56.255Z,10.30
2022-10-20T13:39:17.423Z,10.37
2022-10-20T13:42:44.752Z,10.25
2022-10-20T13:46:40.362Z,10.18
2022-10-20T13:53:48.558Z,9.87
2022-10-20T13:56:55.085Z,9.98
2022-10-20T14:00:08.214Z,9.91
2022-10-20T14:03:21.137Z,9.84
2022-10-20T14:06:39.091Z,9.77
2022-10-20T14:09:49.369Z,9.73
2022-10-20T14:12:59.592Z,9.62
2022-10-20T14:16:19.589Z,9.60
2022-10-20T14:19:28.333Z,9.53
2022-10-20T14:22:41.096Z,9.52
2022-10-20T14:25:49.037Z,9.58
2022-10-20T14:28:58.030Z,9.68
2022-10-20T14:32:04.834Z,9.74
2022-10-20T14:35:28.926Z,9.61
2022-10-20T14:38:40.096Z,9.45
2022-10-20T14:41:49.754Z,9.45
2022-10-20T14:44:59.202Z,9.27
2022-10-20T14:48:09.584Z,9.18
2022-10-20T14:51:39.895Z,9.13
2022-10-20T14:55:00.110Z,9.05
2022-10-20T14:58:41.041Z,9.07
2022-10-20T15:02:08.965Z,8.96
2022-10-20T15:05:40.560Z,8.92
2022-10-20T15:08:58.049Z,8.79
2022-10-20T15:12:18.587Z,8.77
2022-10-20T15:15:29.220Z,8.68
2022-10-20T15:18:39.282Z,8.55
2022-10-20T15:21:45.638Z,8.43
2022-10-20T15:24:51.510Z,8.37
2022-10-20T15:28:03.376Z,8.23
2022-10-20T15:31:21.680Z,8.18
2022-10-20T15:34:27.354Z,7.98
2022-10-20T15:37:34.715Z,7.95
2022-10-20T15:40:40.295Z,7.90
2022-10-20T15:43:48.565Z,7.83
2022-10-20T15:46:56.572Z,7.74
2022-10-20T15:50:08.248Z,7.58
2022-10-20T15:53:17.926Z,7.51
2022-10-20T15:56:24.214Z,7.33
2022-10-20T15:59:32.433Z,7.30
2022-10-20T16:02:38.171Z,7.12
2022-10-20T16:05:44.078Z,7.06
2022-10-20T16:08:53.464Z,6.86
2022-10-20T16:11:59.221Z,6.80
2022-10-20T16:15:10.241Z,6.77
2022-10-20T16:18:17.054Z,6.61
2022-10-20T16:21:22.670Z,6.57
2022-10-20T16:24:28.288Z,6.55
2022-10-20T16:27:38.060Z,6.44
2022-10-20T16:30:46.466Z,6.30
2022-10-20T16:33:51.990Z,6.27
2022-10-20T16:37:07.063Z,6.20
2022-10-20T16:40:13.818Z,6.10
2022-10-20T16:43:19.422Z,6.05
2022-10-20T16:46:27.662Z,6.07
2022-10-20T16:49:33.414Z,5.95
2022-10-20T16:52:39.032Z,5.95
2022-10-20T16:55:55.668Z,6.00
2022-10-20T16:59:02.058Z,5.89
2022-10-20T17:02:10.528Z,5.82
2022-10-20T17:05:16.727Z,5.82
2022-10-20T17:08:31.892Z,5.69
2022-10-20T17:11:40.456Z,5.70
2022-10-20T17:14:46.042Z,5.54
2022-10-20T17:17:54.212Z,5.57
2022-10-20T17:20:59.935Z,5.55
2022-10-20T17:24:22.527Z,5.45
2022-10-20T17:27:29.180Z,5.43
2022-10-20T17:30:36.205Z,5.34
2022-10-20T17:33:45.100Z,5.21
2022-10-20T17:36:55.629Z,5.15
2022-10-20T17:40:01.215Z,5.11
2022-10-20T17:43:29.215Z,5.10
2022-10-20T17:46:35.200Z,4.99
2022-10-20T17:49:43.911Z,4.91
2022-10-20T17:52:49.400Z,4.87
2022-10-20T17:55:54.993Z,4.86
2022-10-20T17:59:03.178Z,4.83
2022-10-20T18:02:08.990Z,4.80
2022-10-20T18:05:18.026Z,4.72
2022-10-20T18:08:23.763Z,4.79
2022-10-20T18:11:33.845Z,4.79
2022-10-20T18:14:39.538Z,4.70
2022-10-20T18:17:45.136Z,4.50
2022-10-20T18:21:00.638Z,4.60
2022-10-20T18:24:10.263Z,4.54
2022-10-20T18:27:15.909Z,4.44
2022-10-20T18:30:21.667Z,4.44
2022-10-20T18:33:27.245Z,4.44
2022-10-20T18:36:39.103Z,4.38
2022-10-20T18:39:47.944Z,4.25
2022-10-20T18:42:53.513Z,4.24
2022-10-20T18:45:59.156Z,4.14
2022-10-20T18:49:08.108Z,4.11
2022-10-20T18:52:16.245Z,4.04
2022-10-20T18:55:21.802Z,4.01
2022-10-20T18:58:28.163Z,3.72
2022-10-20T19:01:37.918Z,3.72
2022-10-20T19:04:43.718Z,3.69
2022-10-20T19:07:51.976Z,3.62
2022-10-20T19:10:58.406Z,3.53
2022-10-20T19:14:04.846Z,3.39
2022-10-20T19:17:10.392Z,3.41
2022-10-20T19:20:16.202Z,3.33
2022-10-20T19:23:24.646Z,3.19
2022-10-20T19:26:33.482Z,3.03
2022-10-20T19:29:39.346Z,2.87
2022-10-20T19:32:45.134Z,2.96
2022-10-20T19:35:52.442Z,2.98
2022-10-20T19:39:03.974Z,2.92
2022-10-20T19:42:13.896Z,2.64
2022-10-20T19:45:19.752Z,2.64
2022-10-20T19:48:26.798Z,2.66
2022-10-20T19:51:33.448Z,2.63
2022-10-20T19:54:42.090Z,2.61
2022-10-20T19:57:48.152Z,2.57
2022-10-20T20:00:59.776Z,2.52
2022-10-20T20:04:06.904Z,2.47
2022-10-20T20:07:13.057Z,2.50
2022-10-20T20:10:21.614Z,2.47
2022-10-20T20:13:29.503Z,2.50
2022-10-20T20:16:35.538Z,2.38
2022-10-20T20:19:41.360Z,2.46
2022-10-20T20:22:47.478Z,2.34
2022-10-20T20:29:03.335Z,2.14
2022-10-20T20:32:09.598Z,2.16
2022-10-20T20:35:15.478Z,2.06
2022-10-20T20:38:21.193Z,1.94
2022-10-20T20:41:31.988Z,1.97
2022-10-20T20:44:37.689Z,2.07
2022-10-20T20:47:46.792Z,1.91
2022-10-20T20:50:56.368Z,1.90
2022-10-20T20:54:02.226Z,1.84
2022-10-20T20:57:10.387Z,1.72
2022-10-20T21:00:17.422Z,1.75
2022-10-20T21:03:23.330Z,1.75
2022-10-20T21:06:56.627Z,1.80
2022-10-20T21:09:56.620Z,1.50
2022-10-20T21:13:04.920Z,1.52
2022-10-20T21:16:13.629Z,1.56
2022-10-20T21:19:20.352Z,1.59
2022-10-20T21:22:28.746Z,1.52
2022-10-20T21:25:34.297Z,1.54
2022-10-20T21:28:43.832Z,1.51
2022-10-20T21:31:49.779Z,1.46
2022-10-20T21:34:55.466Z,1.43
2022-10-20T21:38:01.058Z,1.46
2022-10-20T21:41:08.605Z,1.26
2022-10-20T21:44:17.835Z,1.28
2022-10-20T21:47:23.466Z,1.27
2022-10-20T21:50:28.944Z,1.13
2022-10-20T21:53:34.448Z,1.13
2022-10-20T21:56:44.452Z,1.03
2022-10-20T21:59:52.704Z,0.92
2022-10-20T22:02:58.274Z,0.91
2022-10-20T22:06:06.249Z,0.90
2022-10-20T22:09:15.815Z,0.96
2022-10-20T22:12:21.510Z,1.00
2022-10-20T22:15:29.755Z,0.91
2022-10-20T22:18:35.416Z,0.97
2022-10-20T22:21:43.200Z,0.96
2022-10-20T22:24:48.769Z,1.10
2022-10-20T22:27:54.405Z,1.12
2022-10-20T22:31:02.856Z,1.18
2022-10-20T22:34:09.598Z,1.08
2022-10-20T22:37:15.119Z,0.98
2022-10-20T22:40:20.688Z,0.81
2022-10-20T22:43:26.190Z,0.82
2022-10-20T22:46:34.407Z,0.69
2022-10-20T22:49:39.993Z,0.62
2022-10-20T22:52:46.082Z,0.77
2022-10-20T22:55:51.636Z,0.74
2022-10-20T22:58:57.615Z,0.70
2022-10-20T23:02:05.818Z,0.67
2022-10-20T23:05:12.272Z,0.57
2022-10-20T23:08:17.985Z,0.57
2022-10-20T23:11:24.688Z,0.55
2022-10-20T23:14:30.280Z,0.53
2022-10-20T23:17:38.760Z,0.62
2022-10-20T23:20:44.542Z,0.66
2022-10-20T23:23:50.057Z,0.70
2022-10-20T23:26:55.688Z,0.73
2022-10-20T23:30:01.284Z,0.75
2022-10-20T23:33:09.463Z,0.88
2022-10-20T23:36:17.782Z,0.88
2022-10-20T23:39:23.439Z,0.79
2022-10-20T23:42:29.062Z,0.82
2022-10-20T23:45:37.011Z,0.65
2022-10-20T23:48:46.044Z,0.62
2022-10-20T23:51:51.639Z,0.62
2022-10-20T23:54:57.217Z,0.57
2022-10-20T23:58:02.867Z,0.46
